Time;durP1;ratioP1;P1;durP2;ratioP2;P2;SDS_P1;SDS_P2;PMS_P1;PMS_P2;Temp;Humidity;BMP_temperature;BMP_pressure;BME280_temperature;BME280_humidity;BME280_pressure;Samples;Min_cycle;Max_cycle;Signal;HPM_P1;HPM_P2
2022/04/16 00:01:22;;;;;;;33.80;15.10;;;8.10;99.90;;;;;;5073630;28;20216;-73
2022/04/16 00:03:49;;;;;;;30.10;15.10;;;8.00;99.90;;;;;;5073677;28;20233;-73
2022/04/16 00:06:17;;;;;;;33.77;15.73;;;8.00;99.90;;;;;;5067185;28;20205;-73
2022/04/16 00:08:44;;;;;;;32.30;15.53;;;7.90;99.90;;;;;;5063153;28;20673;-73
2022/04/16 00:11:11;;;;;;;34.53;14.93;;;7.80;99.90;;;;;;5058032;28;20214;-73
2022/04/16 00:13:38;;;;;;;33.23;15.30;;;7.80;99.90;;;;;;5050555;28;20297;-73
2022/04/16 00:16:06;;;;;;;31.93;15.30;;;7.80;99.90;;;;;;5054054;28;20205;-73
2022/04/16 00:18:34;;;;;;;35.83;15.80;;;7.80;99.90;;;;;;5066263;28;20267;-73
2022/04/16 00:21:05;;;;;;;37.03;18.43;;;7.80;99.90;;;;;;5072706;28;20237;-73
2022/04/16 00:23:33;;;;;;;36.77;16.93;;;7.90;99.90;;;;;;5070166;28;20611;-73
2022/04/16 00:26:00;;;;;;;34.53;15.87;;;7.80;99.90;;;;;;5072622;28;20203;-73
2022/04/16 00:28:27;;;;;;;32.67;16.17;;;7.80;99.90;;;;;;5072384;28;20232;-73
2022/04/16 00:30:56;;;;;;;32.27;14.97;;;7.80;99.90;;;;;;5072687;28;20283;-73
2022/04/16 00:33:25;;;;;;;32.77;15.27;;;7.80;99.90;;;;;;5072842;28;20677;-73
2022/04/16 00:35:52;;;;;;;29.50;15.17;;;7.80;99.90;;;;;;5071396;28;20202;-73
2022/04/16 00:38:19;;;;;;;28.23;12.33;;;7.80;99.90;;;;;;5070415;28;20202;-73
2022/04/16 00:40:47;;;;;;;23.73;12.07;;;7.70;99.90;;;;;;5060060;28;20199;-73
2022/04/16 00:43:24;;;;;;;23.63;11.87;;;7.70;99.90;;;;;;5066548;28;20651;-73
2022/04/16 00:45:52;;;;;;;20.70;10.00;;;7.60;99.90;;;;;;5060051;28;20675;-74
2022/04/16 00:48:19;;;;;;;23.83;10.07;;;7.60;99.90;;;;;;5072422;28;20560;-74
2022/04/16 00:50:47;;;;;;;20.03;9.67;;;7.60;89.20;;;;;;5062785;28;20256;-74
2022/04/16 00:53:14;;;;;;;18.23;8.37;;;7.50;99.90;;;;;;5052147;28;20209;-74
2022/04/16 00:55:41;;;;;;;20.27;9.20;;;7.50;99.90;;;;;;5072756;28;20206;-74
2022/04/16 00:58:09;;;;;;;18.20;9.10;;;7.50;99.90;;;;;;5072183;28;20210;-74
2022/04/16 01:00:36;;;;;;;15.73;7.57;;;7.50;99.90;;;;;;5070581;28;20199;-74
2022/04/16 01:03:04;;;;;;;18.37;9.10;;;7.40;99.90;;;;;;5072239;28;20209;-74
2022/04/16 01:05:31;;;;;;;17.40;7.60;;;7.40;99.90;;;;;;5071322;28;20684;-74
2022/04/16 01:07:59;;;;;;;19.57;8.03;;;7.30;99.90;;;;;;5072048;28;20202;-74
2022/04/16 01:10:28;;;;;;;18.00;7.73;;;7.30;99.90;;;;;;5071629;28;20226;-74
2022/04/16 01:12:55;;;;;;;15.13;7.83;;;7.30;99.90;;;;;;5070829;28;20302;-74
2022/04/16 01:15:24;;;;;;;15.63;7.60;;;7.30;99.90;;;;;;5072567;28;20572;-74
2022/04/16 01:17:53;;;;;;;12.10;6.63;;;7.30;99.90;;;;;;5071839;28;20210;-74
2022/04/16 01:20:22;;;;;;;13.73;6.47;;;7.30;99.90;;;;;;5071828;28;20214;-74
2022/04/16 01:22:51;;;;;;;14.93;7.53;;;7.30;99.90;;;;;;5072511;28;20574;-74
2022/04/16 01:25:18;;;;;;;16.23;7.20;;;7.30;99.90;;;;;;5072058;28;20252;-74
2022/04/16 01:27:46;;;;;;;15.03;7.20;;;7.30;99.90;;;;;;5071140;28;20225;-74
2022/04/16 01:30:14;;;;;;;12.83;6.77;;;7.10;99.90;;;;;;5071207;28;20217;-73
2022/04/16 01:32:41;;;;;;;12.63;6.63;;;7.20;99.90;;;;;;5071255;28;20530;-74
2022/04/16 01:35:09;;;;;;;11.63;6.10;;;7.10;52.80;;;;;;5071333;28;20237;-74
2022/04/16 01:37:37;;;;;;;14.10;6.43;;;7.10;11.50;;;;;;5071359;28;20668;-74
2022/04/16 01:40:08;;;;;;;11.27;5.20;;;7.00;59.80;;;;;;5070456;28;20240;-74
2022/04/16 01:42:37;;;;;;;8.47;4.47;;;7.00;1.00;;;;;;5071880;28;20202;-74
2022/04/16 01:45:04;;;;;;;10.43;5.60;;;7.00;1.00;;;;;;5072099;28;20206;-74
2022/04/16 01:47:33;;;;;;;9.70;5.17;;;7.00;1.00;;;;;;5061204;28;20198;-74
2022/04/16 01:50:00;;;;;;;10.40;5.33;;;6.90;1.00;;;;;;5051160;28;20235;-74
2022/04/16 01:52:27;;;;;;;10.77;5.70;;;7.00;1.00;;;;;;5069384;28;20343;-74
2022/04/16 01:54:54;;;;;;;11.17;6.10;;;7.00;68.50;;;;;;5070463;28;20664;-74
2022/04/16 01:57:22;;;;;;;12.80;6.23;;;7.00;99.90;;;;;;5069702;28;20209;-74
2022/04/16 01:59:50;;;;;;;10.77;5.90;;;7.00;99.90;;;;;;5068972;28;20650;-74
2022/04/16 02:02:17;;;;;;;10.67;4.97;;;7.00;99.90;;;;;;5060439;28;20186;-74
2022/04/16 02:04:44;;;;;;;11.37;4.80;;;6.90;99.90;;;;;;5071214;28;20213;-74
2022/04/16 02:07:11;;;;;;;9.53;4.87;;;6.90;1.00;;;;;;5071259;28;20809;-74
2022/04/16 02:09:38;;;;;;;14.27;5.67;;;6.80;1.00;;;;;;5071242;28;20573;-74
2022/04/16 02:12:06;;;;;;;11.37;6.37;;;6.80;1.80;;;;;;5070674;28;20209;-74
2022/04/16 02:14:35;;;;;;;12.50;6.00;;;6.70;1.00;;;;;;5075869;28;20707;-74
2022/04/16 02:17:01;;;;;;;12.23;6.00;;;6.70;1.00;;;;;;5065489;28;20645;-74
2022/04/16 02:19:28;;;;;;;10.20;5.33;;;6.60;1.00;;;;;;5069535;28;20202;-74
2022/04/16 02:21:55;;;;;;;9.83;5.30;;;6.50;1.00;;;;;;5075723;28;20198;-74
2022/04/16 02:24:22;;;;;;;8.00;4.47;;;6.50;1.00;;;;;;5075674;28;20216;-74
2022/04/16 02:26:49;;;;;;;10.53;5.30;;;6.50;1.00;;;;;;5074109;28;20209;-73
2022/04/16 02:29:16;;;;;;;9.43;4.97;;;6.50;1.00;;;;;;5074853;28;20210;-74
2022/04/16 02:31:45;;;;;;;9.83;5.63;;;6.40;1.00;;;;;;5075200;28;20707;-74
2022/04/16 02:34:12;;;;;;;9.57;5.17;;;6.30;1.00;;;;;;5074632;28;20209;-74
2022/04/16 02:36:40;;;;;;;9.30;4.90;;;6.20;92.10;;;;;;5075031;28;20678;-74
2022/04/16 02:39:09;;;;;;;9.40;5.47;;;6.20;60.50;;;;;;5074451;28;20656;-74
2022/04/16 02:41:36;;;;;;;7.97;5.13;;;6.10;99.90;;;;;;5074943;28;20195;-75
2022/04/16 02:44:03;;;;;;;9.37;4.37;;;6.00;99.90;;;;;;5074982;28;20229;-74
2022/04/16 02:49:16;;;;;;;8.00;4.40;;;5.80;71.10;;;;;;5074002;28;20257;-73
2022/04/16 02:51:43;;;;;;;6.50;4.40;;;5.60;89.90;;;;;;5074346;28;20214;-74
2022/04/16 02:54:10;;;;;;;7.97;4.30;;;5.50;3.90;;;;;;5074410;28;20672;-74
2022/04/16 02:56:38;;;;;;;6.70;4.30;;;5.40;99.90;;;;;;5075374;28;20202;-74
2022/04/16 02:59:04;;;;;;;8.17;4.00;;;5.30;99.90;;;;;;5074466;28;20210;-74
2022/04/16 03:01:32;;;;;;;5.87;3.37;;;5.20;92.80;;;;;;5074440;28;20206;-74
2022/04/16 03:03:58;;;;;;;5.63;3.50;;;5.10;1.00;;;;;;5074300;28;20604;-74
2022/04/16 03:06:27;;;;;;;5.03;3.00;;;5.00;1.00;;;;;;5073559;28;20206;-74
2022/04/16 03:08:53;;;;;;;6.63;3.03;;;4.90;1.00;;;;;;5073559;28;20214;-73
2022/04/16 03:11:20;;;;;;;8.60;3.67;;;4.80;1.00;;;;;;5071751;28;20588;-74
2022/04/16 03:13:47;;;;;;;7.77;3.13;;;4.70;1.00;;;;;;5059329;28;20226;-73
2022/04/16 03:18:58;;;;;;;3.80;2.63;;;4.60;1.00;;;;;;5063465;28;20264;-74
2022/04/16 03:21:26;;;;;;;5.13;2.80;;;4.50;1.00;;;;;;5068493;28;20662;-74
2022/04/16 03:23:53;;;;;;;6.30;3.30;;;4.50;12.80;;;;;;5073615;28;20198;-74
2022/04/16 03:26:20;;;;;;;5.43;3.10;;;4.50;1.00;;;;;;5064631;28;20200;-73
2022/04/16 03:28:47;;;;;;;5.33;2.73;;;4.40;1.00;;;;;;5069002;28;20203;-74
2022/04/16 03:31:14;;;;;;;5.97;3.10;;;4.30;1.00;;;;;;5073062;28;20700;-74
2022/04/16 03:33:40;;;;;;;6.60;2.97;;;4.30;19.30;;;;;;5073518;28;20221;-73
2022/04/16 03:36:07;;;;;;;6.67;3.20;;;4.10;21.20;;;;;;5074091;28;20198;-73
2022/04/16 03:38:36;;;;;;;5.40;3.37;;;4.10;1.00;;;;;;5073900;28;20293;-74
2022/04/16 03:41:02;;;;;;;4.60;3.23;;;4.10;27.60;;;;;;5072800;28;20190;-74
2022/04/16 03:43:29;;;;;;;4.70;3.17;;;4.00;49.00;;;;;;5073058;28;20199;-74
2022/04/16 03:45:58;;;;;;;6.93;3.53;;;3.90;51.80;;;;;;5073190;28;20210;-74
2022/04/16 03:48:25;;;;;;;5.97;3.33;;;4.00;93.00;;;;;;5073339;28;20313;-74
2022/04/16 03:50:52;;;;;;;5.83;3.37;;;3.90;99.90;;;;;;5073605;28;20652;-73
2022/04/16 03:53:19;;;;;;;3.87;2.57;;;3.80;99.90;;;;;;5073730;28;20210;-74
2022/04/16 04:01:30;;;;;;;4.17;2.80;;;3.70;99.90;;;;;;5011669;28;20817;-74
2022/04/16 04:03:57;;;;;;;4.33;3.37;;;3.60;99.90;;;;;;5045718;28;20210;-74
2022/04/16 04:06:24;;;;;;;5.57;3.47;;;3.60;99.90;;;;;;5063932;28;20363;-74
2022/04/16 04:08:51;;;;;;;7.10;3.33;;;3.60;99.90;;;;;;5072936;28;20228;-76
2022/04/16 04:11:19;;;;;;;22.20;3.23;;;3.60;99.90;;;;;;5073145;28;20222;-76
2022/04/16 04:13:46;;;;;;;8.97;4.07;;;3.60;99.90;;;;;;5070251;28;20206;-76
2022/04/16 04:16:12;;;;;;;6.73;3.53;;;3.40;99.90;;;;;;5067818;28;20198;-76
2022/04/16 04:18:39;;;;;;;9.07;3.60;;;3.40;99.90;;;;;;5072881;28;20209;-76
2022/04/16 04:21:06;;;;;;;4.90;3.50;;;3.30;99.90;;;;;;5060724;28;20210;-75
2022/04/16 04:23:33;;;;;;;6.60;3.73;;;3.30;99.90;;;;;;5067611;28;20206;-76
2022/04/16 04:26:00;;;;;;;5.27;3.40;;;3.30;99.90;;;;;;5072292;28;20256;-76
2022/04/16 04:28:28;;;;;;;6.23;3.50;;;3.30;99.90;;;;;;5072124;28;20206;-75
2022/04/16 04:30:55;;;;;;;8.40;3.80;;;3.30;99.90;;;;;;5071451;28;20665;-76
2022/04/16 04:33:22;;;;;;;7.33;4.10;;;3.40;99.90;;;;;;5072652;28;20230;-76
2022/04/16 04:35:51;;;;;;;6.17;3.33;;;3.60;99.90;;;;;;5071752;28;20206;-75
2022/04/16 04:38:18;;;;;;;6.50;3.67;;;3.50;99.90;;;;;;5072570;28;20202;-76
2022/04/16 04:40:44;;;;;;;8.30;3.50;;;3.80;99.90;;;;;;5072427;28;20210;-76
2022/04/16 04:43:11;;;;;;;8.00;5.97;;;3.80;99.90;;;;;;5070892;28;20209;-76
2022/04/16 04:45:40;;;;;;;7.80;3.90;;;3.80;99.90;;;;;;5067271;28;20209;-76
2022/04/16 04:48:08;;;;;;;8.50;4.50;;;3.90;99.90;;;;;;5052651;28;20203;-76
2022/04/16 04:50:36;;;;;;;5.20;3.63;;;4.20;99.90;;;;;;5071343;28;20199;-77
2022/04/16 04:53:03;;;;;;;7.30;3.60;;;4.30;99.90;;;;;;5070256;28;20702;-77
2022/04/16 04:55:30;;;;;;;6.60;4.03;;;4.30;86.90;;;;;;5072797;28;20202;-77
2022/04/16 04:57:56;;;;;;;5.83;3.97;;;4.30;99.90;;;;;;5072913;28;20206;-77
2022/04/16 05:00:23;;;;;;;7.03;4.10;;;4.60;99.90;;;;;;5054696;28;20211;-77
2022/04/16 05:02:52;;;;;;;6.53;3.90;;;5.20;99.90;;;;;;5072588;28;20198;-77
2022/04/16 05:05:19;;;;;;;5.47;3.37;;;5.80;79.60;;;;;;5071335;28;20285;-77
2022/04/16 05:07:45;;;;;;;7.97;3.23;;;5.70;99.90;;;;;;5071928;28;20216;-77
2022/04/16 05:10:13;;;;;;;9.43;3.87;;;5.40;99.90;;;;;;5072300;28;20209;-77
2022/04/16 05:12:40;;;;;;;4.17;3.17;;;5.00;99.90;;;;;;5070553;28;20218;-77
2022/04/16 05:15:08;;;;;;;4.33;3.40;;;5.20;30.70;;;;;;5072489;28;20232;-77
2022/04/16 05:17:37;;;;;;;5.00;3.03;;;5.00;60.60;;;;;;5072297;28;20297;-77
2022/04/16 05:20:07;;;;;;;4.93;3.20;;;5.10;23.70;;;;;;5071453;28;20202;-77
2022/04/16 05:22:34;;;;;;;4.73;3.50;;;5.30;99.90;;;;;;5072490;28;20207;-77
2022/04/16 05:25:01;;;;;;;4.10;3.13;;;5.30;99.90;;;;;;5072318;28;20212;-77
2022/04/16 05:27:30;;;;;;;5.93;3.30;;;5.50;99.90;;;;;;5070957;28;20561;-77
2022/04/16 05:30:07;;;;;;;5.27;3.20;;;4.90;99.90;;;;;;5071737;28;20206;-77
2022/04/16 05:32:35;;;;;;;4.10;3.07;;;4.60;99.90;;;;;;5071315;28;20223;-77
2022/04/16 05:35:05;;;;;;;6.87;3.50;;;4.80;99.90;;;;;;5071519;28;20679;-77
2022/04/16 05:37:32;;;;;;;6.50;3.30;;;4.60;99.90;;;;;;5070934;28;20202;-77
2022/04/16 05:39:59;;;;;;;4.80;3.30;;;4.70;5.10;;;;;;5070775;28;20206;-77
2022/04/16 05:42:25;;;;;;;6.60;3.30;;;5.40;99.90;;;;;;5071368;28;20209;-77
2022/04/16 05:44:52;;;;;;;6.63;3.47;;;6.00;74.90;;;;;;5071979;28;20572;-77
2022/04/16 05:47:19;;;;;;;6.53;3.30;;;5.20;99.90;;;;;;5070842;28;20205;-77
2022/04/16 05:49:46;;;;;;;5.40;3.10;;;4.80;99.90;;;;;;5071718;28;20214;-77
2022/04/16 05:52:14;;;;;;;3.73;3.30;;;4.70;99.90;;;;;;5071383;28;20572;-77
2022/04/16 05:54:41;;;;;;;7.40;3.40;;;5.00;99.90;;;;;;5071026;28;20205;-75
2022/04/16 05:57:09;;;;;;;5.73;3.30;;;5.10;1.00;;;;;;5071525;28;20202;-77
2022/04/16 05:59:36;;;;;;;6.10;4.13;;;5.50;1.00;;;;;;5068721;28;20247;-77
2022/04/16 06:02:04;;;;;;;5.27;2.90;;;5.30;99.90;;;;;;5069144;28;20289;-77
2022/04/16 06:04:30;;;;;;;7.50;3.37;;;6.20;1.00;;;;;;5055730;28;20205;-78
2022/04/16 06:06:57;;;;;;;4.17;2.77;;;6.10;1.00;;;;;;5058286;28;20203;-77
2022/04/16 06:09:25;;;;;;;4.83;3.57;;;5.40;1.00;;;;;;5071266;28;20470;-77
2022/04/16 06:11:52;;;;;;;6.87;3.17;;;5.40;25.70;;;;;;5071242;28;20194;-77
2022/04/16 06:14:19;;;;;;;5.57;3.33;;;5.40;1.00;;;;;;5066868;28;20643;-77
2022/04/16 06:16:46;;;;;;;7.17;3.27;;;5.60;6.20;;;;;;5072149;28;20558;-77
2022/04/16 06:19:13;;;;;;;7.80;3.50;;;6.20;1.00;;;;;;5071032;28;20225;-77
2022/04/16 06:21:39;;;;;;;5.70;3.60;;;6.10;16.00;;;;;;5071688;28;20205;-77
2022/04/16 06:24:06;;;;;;;5.17;2.97;;;6.90;50.00;;;;;;5068471;28;20198;-77
2022/04/16 06:26:35;;;;;;;5.80;3.13;;;7.00;10.90;;;;;;5070385;28;20578;-77
2022/04/16 06:29:02;;;;;;;4.13;2.80;;;7.10;1.00;;;;;;5060063;28;20637;-77
2022/04/16 06:31:29;;;;;;;5.63;2.77;;;6.70;1.00;;;;;;5071760;28;20641;-77
2022/04/16 06:33:55;;;;;;;5.50;2.70;;;6.80;1.00;;;;;;5071390;28;20222;-77
2022/04/16 06:36:22;;;;;;;6.53;2.63;;;6.60;34.80;;;;;;5053524;28;20310;-77
2022/04/16 06:38:49;;;;;;;5.53;2.87;;;6.20;1.00;;;;;;5064525;28;20217;-77
2022/04/16 06:41:16;;;;;;;4.37;3.00;;;6.40;48.40;;;;;;5071045;28;20203;-77
2022/04/16 06:43:44;;;;;;;4.27;2.70;;;6.60;38.00;;;;;;5071187;28;20564;-77
2022/04/16 06:46:11;;;;;;;5.70;2.87;;;6.40;55.50;;;;;;5071635;28;20202;-79
2022/04/16 06:48:38;;;;;;;7.33;3.00;;;6.70;1.00;;;;;;5070943;28;20209;-85
2022/04/16 06:51:05;;;;;;;5.07;2.70;;;6.20;1.00;;;;;;5071094;28;20210;-80
2022/04/16 06:53:32;;;;;;;5.73;2.40;;;6.30;52.20;;;;;;5064853;28;20699;-81
2022/04/16 06:56:00;;;;;;;4.17;2.50;;;6.30;52.30;;;;;;5070574;28;20202;-80
2022/04/16 06:58:28;;;;;;;3.17;2.33;;;7.00;1.00;;;;;;5056868;28;20241;-80
2022/04/16 07:00:57;;;;;;;5.03;2.70;;;6.80;46.30;;;;;;5053838;28;20684;-80
2022/04/16 07:03:24;;;;;;;4.00;2.80;;;6.70;99.90;;;;;;5066812;28;20564;-80
2022/04/16 07:05:51;;;;;;;6.73;2.83;;;6.20;84.80;;;;;;5074922;28;20199;-80
2022/04/16 07:08:18;;;;;;;6.30;3.03;;;6.40;67.20;;;;;;5064542;28;20195;-81
2022/04/16 07:10:45;;;;;;;4.60;2.70;;;6.30;1.00;;;;;;5073671;28;20206;-80
2022/04/16 07:13:11;;;;;;;4.83;2.40;;;6.60;1.00;;;;;;5073448;28;20684;-80
2022/04/16 07:15:39;;;;;;;6.90;2.90;;;6.80;1.00;;;;;;5068119;28;20207;-80
2022/04/16 07:18:08;;;;;;;6.27;2.47;;;6.30;1.00;;;;;;5064360;28;20589;-81
2022/04/16 07:20:34;;;;;;;4.37;2.80;;;6.80;1.00;;;;;;5064969;28;20252;-81
2022/04/16 07:23:01;;;;;;;4.60;2.50;;;6.70;1.00;;;;;;5062820;28;20191;-81
2022/04/16 07:25:34;;;;;;;4.37;3.07;;;6.50;1.00;;;;;;5068136;28;20218;-81
2022/04/16 07:28:01;;;;;;;4.80;3.20;;;6.00;1.00;;;;;;5063671;28;20202;-81
2022/04/16 07:30:28;;;;;;;4.70;2.60;;;6.40;1.00;;;;;;5068888;28;20221;-79
2022/04/16 07:32:55;;;;;;;5.57;2.60;;;6.60;1.00;;;;;;5060231;28;20613;-76
2022/04/16 07:35:26;;;;;;;3.80;2.77;;;6.40;1.00;;;;;;5054319;28;20206;-75
2022/04/16 07:37:56;;;;;;;5.37;2.80;;;6.90;1.00;;;;;;5058646;28;20314;-75
2022/04/16 07:40:24;;;;;;;4.53;2.67;;;7.70;15.50;;;;;;5055875;28;20281;-75
2022/04/16 07:42:51;;;;;;;6.60;3.50;;;7.50;1.00;;;;;;5052988;28;20453;-75
2022/04/16 07:45:18;;;;;;;8.20;2.97;;;7.50;1.00;;;;;;5070437;28;20210;-76
2022/04/16 07:47:45;;;;;;;5.37;4.03;;;6.80;1.00;;;;;;5073569;28;20537;-75
2022/04/16 07:50:12;;;;;;;5.17;3.50;;;7.10;1.00;;;;;;5072429;28;20210;-75
2022/04/16 07:52:40;;;;;;;6.07;3.90;;;6.70;1.00;;;;;;5073914;28;20233;-75
2022/04/16 07:55:08;;;;;;;5.57;3.90;;;6.70;1.00;;;;;;5066253;28;20194;-75
2022/04/16 07:57:35;;;;;;;5.67;3.60;;;6.80;1.00;;;;;;5059799;28;20203;-75
2022/04/16 08:00:02;;;;;;;6.13;3.63;;;6.50;1.00;;;;;;5064113;28;20656;-75
2022/04/16 08:02:28;;;;;;;5.67;3.40;;;6.80;1.00;;;;;;5065854;28;20206;-76
2022/04/16 08:04:55;;;;;;;6.33;3.30;;;7.40;1.00;;;;;;5073332;28;20647;-75
2022/04/16 08:07:22;;;;;;;10.50;4.73;;;6.80;99.90;;;;;;5073296;28;20230;-75
2022/04/16 08:09:50;;;;;;;6.20;4.30;;;7.00;1.00;;;;;;5071765;28;20198;-75
2022/04/16 08:12:18;;;;;;;6.27;4.43;;;6.80;99.90;;;;;;5053944;28;20206;-76
2022/04/16 08:14:44;;;;;;;8.13;4.83;;;6.70;1.00;;;;;;5052893;28;20565;-75
2022/04/16 08:17:11;;;;;;;4.70;3.80;;;7.00;1.00;;;;;;5052718;28;20229;-75
2022/04/16 08:19:38;;;;;;;7.67;4.83;;;7.10;1.00;;;;;;5062244;28;20207;-75
2022/04/16 08:22:07;;;;;;;7.73;4.30;;;7.10;1.00;;;;;;5058106;28;20199;-75
2022/04/16 08:24:41;;;;;;;6.00;3.87;;;7.20;1.00;;;;;;5065648;28;20222;-75
2022/04/16 08:27:09;;;;;;;5.50;3.50;;;7.50;99.90;;;;;;5053115;28;20682;-75
2022/04/16 08:29:37;;;;;;;7.47;4.20;;;7.40;1.00;;;;;;5059612;28;20211;-75
2022/04/16 08:32:06;;;;;;;4.00;3.60;;;8.00;82.80;;;;;;5059132;28;20745;-75
2022/04/16 08:34:33;;;;;;;4.50;3.97;;;7.40;1.00;;;;;;5064425;28;20233;-75
2022/04/16 08:37:00;;;;;;;4.67;3.70;;;7.80;99.90;;;;;;5062612;28;20564;-75
2022/04/16 08:39:28;;;;;;;4.90;3.50;;;8.00;99.90;;;;;;5061642;28;20717;-75
2022/04/16 08:41:56;;;;;;;8.40;3.83;;;7.90;1.00;;;;;;5059387;28;20237;-76
2022/04/16 08:44:27;;;;;;;6.20;3.67;;;7.90;99.90;;;;;;5062892;28;20241;-76
2022/04/16 08:46:54;;;;;;;4.57;3.17;;;7.80;99.90;;;;;;5064954;28;20680;-75
2022/04/16 08:49:22;;;;;;;5.30;3.33;;;7.90;1.00;;;;;;5059375;28;20740;-76
2022/04/16 08:51:49;;;;;;;5.83;3.63;;;8.10;99.90;;;;;;5065664;28;20214;-75
2022/04/16 08:54:16;;;;;;;5.47;3.03;;;8.20;1.00;;;;;;5058067;28;20244;-75
2022/04/16 08:56:43;;;;;;;2.87;2.07;;;8.10;1.00;;;;;;5066534;28;20204;-76
2022/04/16 08:59:10;;;;;;;4.13;2.00;;;8.30;1.00;;;;;;5061828;28;20649;-76
2022/04/16 09:01:39;;;;;;;5.43;1.80;;;8.10;98.80;;;;;;5063605;28;20214;-76
2022/04/16 09:04:06;;;;;;;2.73;1.90;;;8.50;1.00;;;;;;5057989;28;20207;-75
2022/04/16 09:06:33;;;;;;;1.70;1.60;;;8.30;90.50;;;;;;5062800;28;20214;-76
2022/04/16 09:09:11;;;;;;;3.30;2.00;;;8.60;1.00;;;;;;5058919;28;20203;-76
2022/04/16 09:11:38;;;;;;;1.70;1.60;;;8.70;90.60;;;;;;5061486;28;20267;-76
2022/04/16 09:14:06;;;;;;;2.07;1.43;;;8.20;79.50;;;;;;5058524;28;20684;-76
2022/04/16 09:16:33;;;;;;;2.63;1.87;;;9.00;74.30;;;;;;5065839;28;20220;-76
2022/04/16 09:19:02;;;;;;;4.30;1.40;;;8.90;78.50;;;;;;5064183;28;20209;-76
2022/04/16 09:21:29;;;;;;;2.37;1.60;;;9.00;73.60;;;;;;5059862;28;20260;-76
2022/04/16 09:23:59;;;;;;;1.97;1.63;;;8.90;81.30;;;;;;5059178;28;20203;-76
2022/04/16 09:26:27;;;;;;;2.83;1.67;;;9.20;97.00;;;;;;5057369;28;20209;-75
2022/04/16 09:28:54;;;;;;;3.03;2.00;;;9.10;74.20;;;;;;5063810;28;20685;-76
2022/04/16 09:31:27;;;;;;;1.83;1.50;;;9.10;75.50;;;;;;5064109;28;20218;-76
2022/04/16 09:33:54;;;;;;;2.87;1.97;;;9.40;92.30;;;;;;5058435;28;20218;-76
2022/04/16 09:36:26;;;;;;;3.70;1.90;;;9.50;96.90;;;;;;5061966;28;20324;-76
2022/04/16 09:39:01;;;;;;;2.00;1.80;;;9.50;72.00;;;;;;5064523;28;20671;-76
2022/04/16 09:41:32;;;;;;;3.60;1.90;;;9.60;70.80;;;;;;5064452;28;20227;-76
2022/04/16 09:43:59;;;;;;;2.80;1.87;;;9.40;61.50;;;;;;5057042;28;20205;-76
2022/04/16 09:46:28;;;;;;;3.33;1.77;;;9.80;64.80;;;;;;5057404;28;20213;-76
2022/04/16 09:49:02;;;;;;;2.57;1.77;;;9.60;66.10;;;;;;5057330;28;20206;-76
2022/04/16 09:51:33;;;;;;;3.03;1.97;;;9.80;78.10;;;;;;5062443;28;20212;-76
2022/04/16 09:54:04;;;;;;;1.70;1.37;;;9.90;70.60;;;;;;5056521;28;20230;-75
2022/04/16 09:56:34;;;;;;;2.23;1.80;;;10.00;71.20;;;;;;5060543;28;20232;-75
2022/04/16 09:59:04;;;;;;;4.53;2.30;;;9.60;63.50;;;;;;5061876;28;20672;-75
2022/04/16 10:01:31;;;;;;;2.63;2.00;;;9.90;70.60;;;;;;5063489;28;20210;-76
2022/04/16 10:04:00;;;;;;;3.60;2.20;;;10.20;70.80;;;;;;5064679;28;20202;-76
2022/04/16 10:06:29;;;;;;;2.27;2.00;;;10.70;75.20;;;;;;5057497;28;20207;-76
2022/04/16 10:08:57;;;;;;;3.33;2.00;;;10.40;69.60;;;;;;5059226;28;20679;-76
2022/04/16 10:14:31;;;;;;;3.33;2.00;;;10.20;90.10;;;;;;5059598;28;20658;-76
2022/04/16 10:17:08;;;;;;;2.70;2.00;;;10.40;60.90;;;;;;5059366;28;20202;-76
2022/04/16 10:19:39;;;;;;;4.07;2.10;;;10.50;62.00;;;;;;5055824;28;20262;-76
2022/04/16 10:22:06;;;;;;;2.50;1.90;;;10.20;58.10;;;;;;5063636;28;20517;-76
2022/04/16 10:24:34;;;;;;;3.83;2.00;;;10.70;69.20;;;;;;5065521;28;20560;-76
2022/04/16 10:27:05;;;;;;;2.60;2.10;;;10.90;73.70;;;;;;5059671;28;20209;-76
2022/04/16 10:29:37;;;;;;;2.33;2.13;;;10.60;71.80;;;;;;5057302;28;20649;-76
2022/04/16 10:32:15;;;;;;;3.70;1.57;;;10.40;65.80;;;;;;5066211;28;20313;-76
2022/04/16 10:34:43;;;;;;;4.73;2.30;;;10.40;57.20;;;;;;5067415;28;20693;-76
2022/04/16 10:37:20;;;;;;;3.77;2.00;;;10.80;56.70;;;;;;5067042;28;20207;-76
2022/04/16 10:39:53;;;;;;;2.23;1.90;;;10.80;50.40;;;;;;5058256;28;20209;-76
2022/04/16 10:42:30;;;;;;;2.63;1.80;;;11.20;60.10;;;;;;5066125;28;20202;-76
2022/04/16 10:45:08;;;;;;;2.00;1.87;;;11.40;56.80;;;;;;5065165;28;20201;-76
2022/04/16 10:47:38;;;;;;;3.20;2.03;;;10.80;50.80;;;;;;5062465;28;20255;-76
2022/04/16 10:50:10;;;;;;;2.43;2.13;;;10.70;53.50;;;;;;5065716;28;20661;-76
2022/04/16 10:52:37;;;;;;;3.10;2.30;;;11.40;53.30;;;;;;5068067;28;20202;-76
2022/04/16 10:55:07;;;;;;;2.67;1.90;;;11.30;52.30;;;;;;5070291;28;20229;-75
2022/04/16 10:57:34;;;;;;;5.93;2.03;;;11.30;57.70;;;;;;5066284;28;20207;-73
2022/04/16 11:00:13;;;;;;;4.13;2.10;;;11.30;52.80;;;;;;5070072;28;20584;-73
2022/04/16 11:02:40;;;;;;;1.90;1.80;;;10.90;50.20;;;;;;5064273;28;20211;-73
2022/04/16 11:05:09;;;;;;;2.90;2.00;;;11.10;49.80;;;;;;5070321;28;20195;-73
2022/04/16 11:07:37;;;;;;;2.07;1.87;;;11.50;52.20;;;;;;5069469;28;20336;-73
2022/04/16 11:10:08;;;;;;;3.13;1.97;;;11.20;47.50;;;;;;5066022;28;20269;-73
2022/04/16 11:12:37;;;;;;;1.87;1.60;;;10.70;42.80;;;;;;5067740;28;20216;-73
2022/04/16 11:15:09;;;;;;;2.67;1.93;;;11.20;46.80;;;;;;5071174;28;20222;-73
2022/04/16 11:17:36;;;;;;;2.87;1.93;;;11.40;47.80;;;;;;5070316;28;20202;-73
2022/04/16 11:20:05;;;;;;;2.67;2.00;;;11.60;49.80;;;;;;5064386;28;20203;-73
2022/04/16 11:22:33;;;;;;;2.90;2.13;;;11.80;42.90;;;;;;5064708;28;20209;-73
2022/04/16 11:25:00;;;;;;;7.73;4.90;;;11.60;43.20;;;;;;5070381;28;20244;-73
2022/04/16 11:35:57;;;;;;;3.63;2.23;;;11.40;37.50;;;;;;5061508;28;20274;-73
2022/04/16 11:38:28;;;;;;;2.70;2.33;;;11.40;38.70;;;;;;5064592;28;20231;-73
2022/04/16 11:40:55;;;;;;;3.07;2.30;;;11.60;41.50;;;;;;5067295;28;20205;-73
2022/04/16 11:43:24;;;;;;;3.00;1.90;;;11.70;44.20;;;;;;5069369;28;20233;-73
2022/04/16 11:45:52;;;;;;;2.73;2.03;;;11.80;37.10;;;;;;5060266;28;20206;-73
2022/04/16 11:48:19;;;;;;;2.77;2.47;;;12.10;47.90;;;;;;5065079;28;20654;-73
2022/04/16 11:50:46;;;;;;;2.73;2.17;;;11.50;35.50;;;;;;5068447;28;20214;-73
2022/04/16 11:53:13;;;;;;;3.87;1.87;;;11.70;34.80;;;;;;5066652;28;20198;-73
2022/04/16 11:55:45;;;;;;;4.50;2.40;;;11.70;34.70;;;;;;5067801;28;20397;-73
2022/04/16 11:58:13;;;;;;;2.47;2.13;;;11.80;45.30;;;;;;5066051;28;20198;-73
2022/04/16 12:00:50;;;;;;;2.80;2.50;;;11.60;36.50;;;;;;5063849;28;20661;-73
2022/04/16 12:03:18;;;;;;;3.50;2.40;;;12.00;41.60;;;;;;5070821;28;20194;-73
2022/04/16 12:05:47;;;;;;;4.10;2.90;;;11.80;36.40;;;;;;5060875;28;20640;-73
2022/04/16 12:08:16;;;;;;;1.90;1.80;;;12.80;45.10;;;;;;5069080;28;20194;-73
2022/04/16 12:10:46;;;;;;;3.07;2.20;;;12.40;29.80;;;;;;5064527;28;20206;-73
2022/04/16 12:13:14;;;;;;;2.40;1.93;;;12.10;29.20;;;;;;5070744;28;20551;-73
2022/04/16 12:15:42;;;;;;;3.47;1.93;;;12.10;29.60;;;;;;5066827;28;20673;-73
2022/04/16 12:18:13;;;;;;;3.03;1.90;;;12.90;30.00;;;;;;5064787;28;20203;-73
2022/04/16 12:20:46;;;;;;;3.03;2.10;;;12.10;23.10;;;;;;5064221;28;20214;-73
2022/04/16 12:23:20;;;;;;;1.90;1.80;;;12.10;30.50;;;;;;5061014;28;20264;-73
2022/04/16 12:25:47;;;;;;;1.80;1.67;;;12.00;24.80;;;;;;5052574;28;20203;-73
2022/04/16 12:28:15;;;;;;;2.67;2.10;;;12.20;30.40;;;;;;5062582;28;20198;-74
2022/04/16 12:30:50;;;;;;;3.37;2.00;;;12.30;30.10;;;;;;5068533;28;20199;-73
2022/04/16 12:33:22;;;;;;;2.10;1.90;;;12.30;29.40;;;;;;5064622;28;20210;-73
2022/04/16 12:35:50;;;;;;;2.13;1.77;;;12.20;24.60;;;;;;5053319;28;20273;-73
2022/04/16 12:38:17;;;;;;;2.87;1.60;;;12.20;29.20;;;;;;5058222;28;20271;-73
2022/04/16 12:40:45;;;;;;;3.00;2.00;;;12.00;24.60;;;;;;5072772;28;20636;-73
2022/04/16 12:43:12;;;;;;;2.03;1.93;;;12.10;28.20;;;;;;5068483;28;20199;-73
2022/04/16 12:45:39;;;;;;;1.70;1.60;;;12.40;26.60;;;;;;5053069;28;20639;-73
2022/04/16 12:48:07;;;;;;;1.53;1.40;;;12.70;33.50;;;;;;5058458;28;20202;-72
2022/04/16 12:50:35;;;;;;;3.10;2.17;;;12.40;26.80;;;;;;5061097;28;20245;-71
2022/04/16 12:53:04;;;;;;;3.23;1.60;;;12.50;29.20;;;;;;5057445;28;20198;-72
2022/04/16 12:55:31;;;;;;;2.60;1.73;;;12.30;26.90;;;;;;5072679;28;20257;-72
2022/04/16 12:57:58;;;;;;;1.53;1.43;;;12.80;29.00;;;;;;5069177;28;20198;-71
2022/04/16 13:00:25;;;;;;;1.63;1.53;;;12.60;29.80;;;;;;5070110;28;20198;-71
2022/04/16 13:02:52;;;;;;;2.73;1.37;;;12.70;25.30;;;;;;5065205;28;20217;-71
2022/04/16 13:05:19;;;;;;;1.63;1.30;;;12.60;16.70;;;;;;5071528;28;20218;-72
2022/04/16 13:07:48;;;;;;;1.77;1.30;;;12.50;19.60;;;;;;5072676;28;21176;-72
2022/04/16 13:10:15;;;;;;;3.00;1.57;;;12.80;19.80;;;;;;5072796;28;20205;-74
2022/04/16 13:12:42;;;;;;;3.20;1.77;;;12.80;17.80;;;;;;5071033;28;20199;-74
2022/04/16 13:15:10;;;;;;;2.17;1.93;;;12.60;16.90;;;;;;5071777;28;20222;-71
2022/04/16 13:17:39;;;;;;;2.23;1.30;;;12.80;21.30;;;;;;5072477;28;20206;-71
2022/04/16 13:20:08;;;;;;;1.80;1.40;;;13.00;19.10;;;;;;5060085;28;20199;-71
2022/04/16 13:22:35;;;;;;;2.20;1.50;;;13.30;17.30;;;;;;5058573;28;20690;-71